Terminal Aerodrome Forecast
Issued by NWS Omaha/Valley, NE

Home | Current Version | Previous Version | Graphics & Text | Print | Product List | Glossary On
Versions: 1 2 3 4 5 6 7 8 9 10 11 12 13 14 15 16 17 18 19 20 21 22 23 24 25 26 27 28 29 30 31 32 33 34 35 36 37 38 39 40
000
FTUS43 KOAX 211125
TAFOFK
TAF
KOFK 211125Z 2112/2212 16009KT P6SM BKN250
     FM211600 18013KT P6SM SCT070 BKN120
     FM212100 18010KT P6SM SCT018 OVC100
     FM220300 19008KT 5SM BR BKN015
      TEMPO 2208/2212 2SM BR OVC008=

USA.gov is the U.S. government's official web portal to all federal, state and local government web resources and services.